Time;durP1;ratioP1;P1;durP2;ratioP2;P2;SDS_P1;SDS_P2;PMS_P1;PMS_P2;Temp;Humidity;BMP_temperature;BMP_pressure;BME280_temperature;BME280_humidity;BME280_pressure;Samples;Min_cycle;Max_cycle;Signal;HPM_P1;HPM_P2
2024/03/16 00:01:04;;;;;;;5.73;3.43;;;10.10;1.00;;;;;;5056543;28;20508;-62
2024/03/16 00:03:31;;;;;;;4.37;3.27;;;10.10;1.00;;;;;;5056227;28;20809;-62
2024/03/16 00:05:59;;;;;;;5.63;3.57;;;10.10;1.00;;;;;;5056113;28;20490;-61
2024/03/16 00:08:26;;;;;;;5.20;3.47;;;10.00;1.00;;;;;;5056086;28;20461;-61
2024/03/16 00:10:54;;;;;;;5.27;3.57;;;10.00;1.00;;;;;;5056353;28;20480;-60
2024/03/16 00:13:21;;;;;;;4.97;3.67;;;10.00;1.00;;;;;;5056258;28;20468;-60
2024/03/16 00:15:50;;;;;;;9.97;3.57;;;9.90;14.20;;;;;;5056240;28;20734;-60
2024/03/16 00:18:17;;;;;;;7.07;3.47;;;9.90;40.10;;;;;;5056718;28;20485;-60
2024/03/16 00:20:45;;;;;;;7.00;3.57;;;9.90;54.60;;;;;;5055881;28;20454;-61
2024/03/16 00:23:12;;;;;;;5.77;3.90;;;9.90;96.60;;;;;;5056318;28;20512;-61
2024/03/16 00:25:40;;;;;;;8.50;4.07;;;9.90;92.10;;;;;;5055959;28;20549;-60
2024/03/16 00:28:07;;;;;;;5.90;3.60;;;9.80;46.30;;;;;;5055741;28;20461;-60
2024/03/16 00:30:34;;;;;;;5.90;3.70;;;9.80;39.60;;;;;;5055780;28;20494;-62
2024/03/16 00:33:02;;;;;;;6.10;3.50;;;9.80;40.10;;;;;;5056157;28;20482;-61
2024/03/16 00:35:29;;;;;;;6.10;4.00;;;9.80;60.70;;;;;;5054658;28;21064;-61
2024/03/16 00:37:59;;;;;;;6.07;4.07;;;9.80;91.00;;;;;;5054562;28;20458;-61
2024/03/16 00:40:26;;;;;;;6.70;5.37;;;9.80;99.90;;;;;;5055017;28;20462;-62
2024/03/16 00:42:53;;;;;;;12.53;5.47;;;9.80;99.90;;;;;;5055712;28;20493;-60
2024/03/16 00:45:21;;;;;;;6.23;4.80;;;9.80;99.90;;;;;;5056139;28;20461;-61
2024/03/16 00:47:48;;;;;;;5.33;4.83;;;9.80;99.90;;;;;;5055265;28;20761;-62
2024/03/16 00:50:16;;;;;;;5.23;4.00;;;9.80;99.90;;;;;;5056049;28;20494;-62
2024/03/16 00:52:44;;;;;;;6.83;4.50;;;9.80;99.90;;;;;;5055761;28;20462;-62
2024/03/16 00:55:11;;;;;;;7.87;3.77;;;9.80;99.90;;;;;;5056295;28;20508;-62
2024/03/16 00:57:39;;;;;;;5.80;4.03;;;9.80;99.90;;;;;;5055945;28;20899;-62
2024/03/16 01:00:09;;;;;;;9.90;4.00;;;9.80;99.90;;;;;;5053893;28;20497;-62
2024/03/16 01:02:36;;;;;;;10.10;4.40;;;9.80;99.90;;;;;;5054403;28;20459;-61
2024/03/16 01:05:03;;;;;;;6.50;3.70;;;9.90;81.00;;;;;;5057851;28;20458;-62
2024/03/16 01:07:31;;;;;;;5.13;3.90;;;9.90;55.30;;;;;;5058130;28;20454;-62
2024/03/16 01:09:59;;;;;;;7.40;3.53;;;9.90;29.00;;;;;;5041607;28;20505;-61
2024/03/16 01:12:26;;;;;;;6.13;3.37;;;9.90;2.80;;;;;;5041877;28;20507;-63
2024/03/16 01:14:53;;;;;;;7.13;3.03;;;10.00;1.00;;;;;;5041529;28;20464;-61
2024/03/16 01:17:22;;;;;;;10.20;3.70;;;9.90;1.00;;;;;;5041880;28;20462;-63
2024/03/16 01:19:49;;;;;;;9.37;3.10;;;10.00;1.00;;;;;;5041908;28;20461;-62
2024/03/16 01:22:16;;;;;;;11.97;4.07;;;10.00;1.00;;;;;;5043053;28;20516;-61
2024/03/16 01:24:44;;;;;;;8.43;3.27;;;10.00;1.00;;;;;;5043259;28;20462;-62
2024/03/16 01:27:11;;;;;;;6.70;2.53;;;10.00;1.00;;;;;;5042653;28;20486;-61
2024/03/16 01:29:38;;;;;;;8.77;3.07;;;10.00;1.00;;;;;;5043088;28;20932;-62
2024/03/16 01:32:08;;;;;;;6.43;2.30;;;9.90;1.00;;;;;;5042614;28;20507;-62
2024/03/16 01:34:35;;;;;;;10.20;2.90;;;10.00;1.00;;;;;;5043324;28;20466;-62
2024/03/16 01:37:02;;;;;;;7.80;2.73;;;9.90;1.00;;;;;;5042790;28;20458;-62
2024/03/16 01:39:30;;;;;;;8.37;2.43;;;10.00;1.00;;;;;;5043052;28;20454;-62
2024/03/16 01:41:57;;;;;;;4.57;2.37;;;10.00;1.00;;;;;;5043002;28;20954;-61
2024/03/16 01:44:24;;;;;;;6.13;2.77;;;10.00;1.00;;;;;;5042243;28;20498;-62
2024/03/16 01:46:52;;;;;;;7.47;2.50;;;10.00;1.00;;;;;;5042741;28;20883;-63
2024/03/16 01:49:19;;;;;;;9.27;2.63;;;9.90;1.00;;;;;;5042593;28;20547;-62
2024/03/16 01:51:46;;;;;;;4.87;2.40;;;9.90;1.00;;;;;;5042758;28;20454;-62
2024/03/16 01:54:13;;;;;;;6.10;3.20;;;10.00;99.90;;;;;;5042454;28;20517;-62
2024/03/16 01:56:41;;;;;;;6.03;2.90;;;9.90;99.90;;;;;;5042454;28;20458;-63
2024/03/16 01:59:08;;;;;;;6.93;2.40;;;10.00;99.90;;;;;;5042547;28;20458;-63
2024/03/16 02:01:35;;;;;;;7.00;3.53;;;10.00;1.00;;;;;;5041807;28;20454;-62
2024/03/16 02:04:03;;;;;;;5.90;2.50;;;10.00;99.90;;;;;;5042445;28;20465;-70
2024/03/16 02:06:30;;;;;;;5.17;2.70;;;9.90;99.90;;;;;;5042557;28;20553;-71
2024/03/16 02:09:00;;;;;;;7.50;2.27;;;9.90;99.90;;;;;;5042577;28;20465;-70
2024/03/16 02:11:27;;;;;;;7.37;2.97;;;10.00;99.90;;;;;;5043876;28;20458;-69
2024/03/16 02:13:55;;;;;;;8.43;2.70;;;9.90;99.90;;;;;;5042108;28;20468;-70
2024/03/16 02:16:22;;;;;;;4.97;2.73;;;9.90;99.90;;;;;;5041184;28;20461;-69
2024/03/16 02:18:50;;;;;;;4.30;2.43;;;9.90;1.00;;;;;;5042060;28;20504;-68
2024/03/16 02:21:17;;;;;;;6.00;2.50;;;9.90;99.90;;;;;;5043188;28;20520;-70
2024/03/16 02:23:44;;;;;;;6.17;2.33;;;9.90;99.90;;;;;;5042428;28;20476;-69
2024/03/16 02:26:12;;;;;;;6.90;3.17;;;9.90;99.90;;;;;;5041934;28;20494;-70
2024/03/16 02:28:39;;;;;;;7.80;2.50;;;9.90;99.90;;;;;;5042120;28;20542;-67
2024/03/16 02:31:06;;;;;;;6.50;2.93;;;9.90;99.90;;;;;;5041704;28;20885;-69
2024/03/16 02:33:35;;;;;;;7.17;2.70;;;9.90;99.90;;;;;;5041267;28;20458;-70
2024/03/16 02:36:03;;;;;;;5.37;2.87;;;9.90;99.90;;;;;;5041904;28;20892;-69
2024/03/16 02:38:30;;;;;;;6.63;2.83;;;9.90;99.90;;;;;;5041990;28;20434;-69
2024/03/16 02:40:58;;;;;;;5.57;2.83;;;9.90;99.90;;;;;;5041885;28;20872;-69
2024/03/16 02:43:25;;;;;;;4.77;2.70;;;9.90;99.90;;;;;;5042025;28;20458;-69
2024/03/16 02:45:58;;;;;;;5.93;3.07;;;9.80;99.90;;;;;;5041874;28;20458;-68
2024/03/16 02:48:26;;;;;;;8.00;3.70;;;9.80;1.00;;;;;;5041441;28;20451;-69
2024/03/16 02:50:53;;;;;;;7.67;3.63;;;9.90;1.00;;;;;;5041430;28;20552;-70
2024/03/16 02:53:20;;;;;;;8.43;4.10;;;9.90;1.00;;;;;;5041809;28;20868;-69
2024/03/16 02:55:46;;;;;;;9.40;4.20;;;9.90;1.00;;;;;;5040567;28;20552;-69
2024/03/16 02:58:14;;;;;;;8.90;4.20;;;9.80;1.00;;;;;;5040849;28;20458;-69
2024/03/16 03:00:41;;;;;;;10.50;4.60;;;9.90;1.00;;;;;;5041332;28;20465;-70
2024/03/16 03:03:08;;;;;;;7.30;4.17;;;9.80;1.00;;;;;;5041515;28;20513;-69
2024/03/16 03:05:35;;;;;;;6.87;4.73;;;9.90;1.00;;;;;;5040865;28;20511;-70
2024/03/16 03:08:04;;;;;;;9.83;5.20;;;9.90;1.00;;;;;;5040925;28;20490;-68
2024/03/16 03:10:32;;;;;;;8.13;5.20;;;9.90;85.60;;;;;;5041152;28;20807;-68
2024/03/16 03:13:01;;;;;;;8.77;5.67;;;9.80;96.00;;;;;;5041037;28;20458;-67
2024/03/16 03:15:28;;;;;;;12.43;5.43;;;9.80;93.90;;;;;;5041261;28;20462;-70
2024/03/16 03:17:55;;;;;;;10.67;5.10;;;9.90;99.90;;;;;;5040603;28;20465;-71
2024/03/16 03:20:23;;;;;;;7.27;5.17;;;9.90;99.20;;;;;;5040897;28;20460;-68
2024/03/16 03:22:50;;;;;;;12.90;5.50;;;9.90;99.90;;;;;;5041240;28;20561;-70
2024/03/16 03:25:19;;;;;;;7.03;5.27;;;9.80;99.90;;;;;;5040503;28;20462;-70
2024/03/16 03:27:46;;;;;;;10.47;4.80;;;9.90;99.90;;;;;;5040342;28;20781;-68
2024/03/16 03:30:13;;;;;;;7.37;5.10;;;9.90;99.90;;;;;;5040364;28;20533;-68
2024/03/16 03:32:40;;;;;;;7.73;5.20;;;9.90;92.80;;;;;;5040896;28;20527;-68
2024/03/16 03:35:08;;;;;;;8.70;5.70;;;9.80;99.90;;;;;;5040238;28;20462;-67
2024/03/16 03:37:35;;;;;;;14.00;7.20;;;9.90;99.90;;;;;;5040867;28;20541;-68
2024/03/16 03:40:03;;;;;;;12.20;6.83;;;9.90;99.90;;;;;;5040586;28;20458;-68
2024/03/16 03:42:33;;;;;;;9.43;6.30;;;9.90;99.90;;;;;;5040604;28;20454;-68
2024/03/16 03:45:24;;;;;;;6.80;5.50;;;9.90;99.90;;;;;;5040963;28;20528;-67
2024/03/16 03:48:00;;;;;;;10.67;6.03;;;9.90;99.90;;;;;;5043536;28;20465;-67
2024/03/16 03:50:28;;;;;;;7.07;5.77;;;9.80;99.90;;;;;;5041532;28;20494;-63
2024/03/16 03:52:59;;;;;;;8.70;5.80;;;9.90;99.90;;;;;;5040473;28;20458;-70
2024/03/16 03:55:26;;;;;;;8.03;6.37;;;9.90;99.90;;;;;;5041036;28;20466;-70
2024/03/16 03:57:53;;;;;;;9.37;5.77;;;9.80;99.90;;;;;;5040276;28;20900;-66
2024/03/16 04:00:20;;;;;;;13.13;6.23;;;9.80;99.90;;;;;;5040059;28;20895;-68
2024/03/16 04:02:48;;;;;;;10.77;7.17;;;9.90;99.90;;;;;;5040229;28;20494;-67
2024/03/16 04:05:15;;;;;;;10.70;6.37;;;9.90;99.90;;;;;;5040216;28;20458;-68
2024/03/16 04:07:43;;;;;;;9.40;7.00;;;9.80;99.90;;;;;;5039906;28;20516;-67
2024/03/16 04:10:10;;;;;;;10.50;6.90;;;9.90;99.90;;;;;;5039956;28;20486;-67
2024/03/16 04:12:38;;;;;;;12.43;6.83;;;9.90;99.90;;;;;;5039757;28;20490;-68
2024/03/16 04:15:05;;;;;;;12.60;7.63;;;9.90;99.90;;;;;;5040129;28;20466;-68
2024/03/16 04:17:33;;;;;;;8.73;6.53;;;9.90;99.90;;;;;;5039844;28;20770;-69
2024/03/16 04:20:00;;;;;;;9.70;6.20;;;9.90;99.90;;;;;;5040054;28;20454;-67
2024/03/16 04:22:28;;;;;;;8.30;6.73;;;9.90;99.90;;;;;;5039882;28;20498;-67
2024/03/16 04:24:55;;;;;;;17.80;7.23;;;9.90;99.90;;;;;;5040026;28;20905;-67
2024/03/16 04:27:22;;;;;;;9.90;7.00;;;9.90;99.90;;;;;;5039339;28;20577;-67
2024/03/16 04:29:50;;;;;;;10.07;7.50;;;9.90;99.90;;;;;;5039556;28;20490;-68
2024/03/16 04:32:17;;;;;;;7.73;6.10;;;9.90;99.90;;;;;;5040034;28;20824;-66
2024/03/16 04:34:44;;;;;;;9.93;6.03;;;9.90;99.90;;;;;;5039606;28;20507;-67
2024/03/16 04:37:11;;;;;;;7.80;5.97;;;9.90;99.90;;;;;;5039450;28;20947;-67
2024/03/16 04:39:43;;;;;;;7.23;5.70;;;10.00;99.90;;;;;;5038969;28;20480;-66
2024/03/16 04:42:10;;;;;;;7.63;6.33;;;10.00;99.90;;;;;;5040083;28;20915;-64
2024/03/16 04:44:37;;;;;;;10.37;6.20;;;9.90;99.90;;;;;;5039363;28;20896;-66
2024/03/16 04:47:05;;;;;;;15.27;6.37;;;10.00;99.90;;;;;;5040261;28;20454;-67
2024/03/16 04:49:32;;;;;;;10.17;6.40;;;10.00;99.90;;;;;;5039279;28;20824;-68
2024/03/16 04:51:59;;;;;;;9.47;6.50;;;9.90;99.90;;;;;;5039288;28;20585;-68
2024/03/16 04:54:26;;;;;;;9.17;6.47;;;9.90;99.90;;;;;;5039465;28;20464;-68
2024/03/16 04:56:54;;;;;;;7.73;5.87;;;9.90;1.00;;;;;;5039507;28;20508;-68
2024/03/16 04:59:21;;;;;;;8.80;6.33;;;9.90;1.00;;;;;;5039627;28;20872;-68
2024/03/16 05:01:48;;;;;;;9.93;6.70;;;9.90;99.90;;;;;;5038982;28;20460;-68
2024/03/16 05:04:15;;;;;;;6.50;5.60;;;9.90;99.90;;;;;;5039287;28;20468;-68
2024/03/16 05:06:42;;;;;;;11.17;8.20;;;9.90;1.00;;;;;;5039090;28;20458;-68
2024/03/16 05:09:10;;;;;;;9.93;7.60;;;9.90;1.00;;;;;;5039415;28;20938;-68
2024/03/16 05:11:37;;;;;;;12.07;8.13;;;9.80;30.80;;;;;;5039528;28;20493;-68
2024/03/16 05:14:06;;;;;;;11.70;7.73;;;9.80;99.90;;;;;;5038854;28;20512;-68
2024/03/16 05:16:33;;;;;;;11.33;8.83;;;9.80;99.90;;;;;;5039640;28;20462;-68
2024/03/16 05:19:02;;;;;;;17.93;8.83;;;9.80;99.90;;;;;;5039920;28;20904;-69
2024/03/16 05:21:29;;;;;;;13.00;9.00;;;9.80;99.90;;;;;;5039735;28;20454;-69
2024/03/16 05:23:57;;;;;;;10.50;9.33;;;9.80;99.90;;;;;;5040418;28;20557;-68
2024/03/16 05:26:25;;;;;;;9.70;8.60;;;9.70;99.90;;;;;;5039310;28;20737;-67
2024/03/16 05:28:52;;;;;;;11.60;9.13;;;9.80;1.00;;;;;;5039230;28;20453;-68
2024/03/16 05:31:19;;;;;;;14.50;9.63;;;9.80;1.00;;;;;;5038960;28;20525;-68
2024/03/16 05:33:48;;;;;;;12.40;9.80;;;9.90;1.00;;;;;;5039070;28;20494;-68
2024/03/16 05:36:16;;;;;;;13.57;9.63;;;9.80;1.00;;;;;;5040648;28;20985;-68
2024/03/16 05:38:45;;;;;;;15.67;10.50;;;9.80;1.00;;;;;;5041437;28;20512;-68
2024/03/16 05:41:12;;;;;;;12.73;10.40;;;9.80;99.90;;;;;;5040881;28;20501;-68
2024/03/16 05:43:42;;;;;;;18.67;12.20;;;9.80;99.90;;;;;;5040429;28;20461;-69
2024/03/16 05:46:09;;;;;;;15.67;11.90;;;9.80;99.90;;;;;;5040202;28;20454;-69
2024/03/16 05:48:36;;;;;;;16.87;11.10;;;9.90;99.90;;;;;;5038718;28;20484;-66
2024/03/16 05:51:04;;;;;;;14.47;10.40;;;9.80;99.90;;;;;;5041719;28;20493;-67
2024/03/16 05:53:32;;;;;;;14.87;12.57;;;9.90;1.00;;;;;;5042659;28;20814;-67
2024/03/16 05:55:59;;;;;;;14.97;10.50;;;9.80;55.50;;;;;;5042639;28;20519;-68
2024/03/16 05:58:27;;;;;;;14.60;11.20;;;9.80;99.90;;;;;;5042281;28;20454;-67
2024/03/16 06:00:56;;;;;;;16.80;12.03;;;9.90;99.90;;;;;;5042787;28;20485;-66
2024/03/16 06:03:24;;;;;;;18.60;11.93;;;9.80;99.90;;;;;;5054853;28;20473;-67
2024/03/16 06:05:51;;;;;;;16.83;12.10;;;9.80;1.00;;;;;;5061400;28;20896;-66
2024/03/16 06:08:18;;;;;;;17.10;10.63;;;9.80;1.00;;;;;;5061435;28;20445;-66
2024/03/16 06:10:47;;;;;;;13.33;10.33;;;9.80;1.00;;;;;;5062370;28;20488;-67
2024/03/16 06:13:15;;;;;;;11.17;9.50;;;9.90;93.10;;;;;;5062607;28;20453;-66
2024/03/16 06:15:42;;;;;;;11.73;10.53;;;9.90;99.90;;;;;;5061927;28;20874;-66
2024/03/16 06:18:09;;;;;;;11.27;10.07;;;9.80;99.90;;;;;;5061990;28;20453;-66
2024/03/16 06:20:36;;;;;;;12.27;11.00;;;9.80;99.90;;;;;;5062186;28;20459;-66
2024/03/16 06:23:06;;;;;;;11.93;10.53;;;9.80;99.90;;;;;;5062072;28;20458;-66
2024/03/16 06:25:46;;;;;;;11.50;9.20;;;9.80;99.90;;;;;;5062408;28;20497;-67
2024/03/16 06:28:16;;;;;;;10.13;9.10;;;9.80;99.90;;;;;;5063263;28;20572;-66
2024/03/16 06:30:48;;;;;;;14.27;7.60;;;9.70;99.90;;;;;;5062193;28;20954;-66
2024/03/16 06:33:27;;;;;;;7.80;5.50;;;9.50;99.90;;;;;;5062652;28;20507;-67
2024/03/16 06:35:54;;;;;;;7.87;4.90;;;9.30;88.00;;;;;;5062349;28;20465;-67
2024/03/16 06:38:22;;;;;;;11.03;4.70;;;9.10;99.90;;;;;;5061889;28;20457;-67
2024/03/16 06:40:50;;;;;;;10.83;5.57;;;8.90;1.00;;;;;;5061601;28;20450;-66
2024/03/16 06:43:18;;;;;;;9.90;6.13;;;8.80;99.90;;;;;;5061856;28;20456;-67
2024/03/16 06:45:45;;;;;;;9.33;7.53;;;8.90;1.00;;;;;;5060189;28;20473;-66
2024/03/16 06:48:13;;;;;;;12.27;8.57;;;8.80;1.00;;;;;;5059807;28;20485;-66
2024/03/16 06:50:40;;;;;;;11.00;9.30;;;8.90;1.00;;;;;;5059236;28;20580;-66
2024/03/16 06:53:07;;;;;;;13.23;11.47;;;8.80;99.90;;;;;;5059912;28;20493;-66
2024/03/16 06:55:34;;;;;;;18.07;13.03;;;8.90;1.00;;;;;;5059598;28;20548;-66
2024/03/16 06:58:02;;;;;;;19.80;13.30;;;8.80;99.90;;;;;;5059825;28;20932;-66
2024/03/16 07:00:29;;;;;;;16.13;12.53;;;8.80;1.00;;;;;;5058698;28;20825;-66
2024/03/16 07:02:56;;;;;;;16.17;13.20;;;8.90;1.00;;;;;;5057876;28;20454;-66
2024/03/16 07:05:24;;;;;;;16.33;13.43;;;9.00;1.00;;;;;;5059643;28;20457;-67
2024/03/16 07:07:52;;;;;;;15.67;12.73;;;8.90;1.00;;;;;;5059684;28;20459;-66
2024/03/16 07:10:18;;;;;;;14.50;12.90;;;8.80;1.00;;;;;;5059135;28;20457;-67
2024/03/16 07:12:45;;;;;;;12.23;11.03;;;8.70;99.90;;;;;;5059793;28;20493;-67
2024/03/16 07:15:15;;;;;;;11.40;10.20;;;8.60;99.90;;;;;;5059634;28;20473;-67
2024/03/16 07:17:42;;;;;;;12.13;9.97;;;8.60;99.90;;;;;;5060353;28;20457;-67
2024/03/16 07:20:12;;;;;;;13.03;10.93;;;8.60;99.90;;;;;;5060102;28;20567;-68
2024/03/16 07:22:40;;;;;;;17.10;11.63;;;8.50;1.00;;;;;;5060571;28;20468;-67
2024/03/16 07:25:08;;;;;;;12.87;10.93;;;8.50;1.00;;;;;;5060954;28;20449;-67
2024/03/16 07:27:35;;;;;;;13.07;11.70;;;8.50;1.00;;;;;;5060353;28;20488;-67
2024/03/16 07:30:02;;;;;;;14.57;11.43;;;8.60;99.90;;;;;;5060607;28;20957;-68
2024/03/16 07:32:30;;;;;;;13.63;12.13;;;8.60;1.00;;;;;;5060515;28;20945;-67
2024/03/16 07:34:57;;;;;;;13.17;11.70;;;8.60;99.90;;;;;;5061090;28;20535;-67
2024/03/16 07:37:24;;;;;;;14.10;12.33;;;8.70;99.90;;;;;;5059627;28;20492;-67
2024/03/16 07:39:51;;;;;;;14.60;12.47;;;8.70;99.90;;;;;;5059865;28;20477;-67
2024/03/16 07:42:19;;;;;;;15.07;12.67;;;8.60;1.00;;;;;;5060299;28;20458;-67
2024/03/16 07:44:46;;;;;;;11.97;10.77;;;8.60;1.00;;;;;;5059352;28;20465;-67
2024/03/16 07:47:13;;;;;;;11.57;9.97;;;8.60;99.90;;;;;;5059391;28;20949;-67
2024/03/16 07:49:40;;;;;;;13.67;11.00;;;8.70;27.30;;;;;;5059462;28;20453;-66
2024/03/16 07:52:08;;;;;;;11.10;10.00;;;8.60;1.00;;;;;;5059581;28;20532;-66
2024/03/16 07:54:35;;;;;;;13.33;11.30;;;8.60;1.00;;;;;;5059492;28;20453;-66
2024/03/16 07:57:03;;;;;;;10.53;8.30;;;8.50;99.90;;;;;;5059506;28;20501;-67
2024/03/16 07:59:30;;;;;;;9.60;8.50;;;8.30;99.90;;;;;;5059916;28;20449;-67
2024/03/16 08:01:58;;;;;;;14.30;10.97;;;8.30;99.90;;;;;;5060073;28;20454;-67
2024/03/16 08:04:27;;;;;;;11.40;9.30;;;8.40;99.90;;;;;;5060442;28;20871;-67
2024/03/16 08:06:55;;;;;;;10.37;9.37;;;8.40;99.90;;;;;;5059974;28;20461;-67
2024/03/16 08:09:23;;;;;;;11.13;10.03;;;8.40;99.90;;;;;;5060261;28;20533;-67
2024/03/16 08:11:51;;;;;;;11.90;10.33;;;8.60;99.90;;;;;;5060011;28;20793;-67
2024/03/16 08:14:18;;;;;;;11.03;9.93;;;8.70;99.90;;;;;;5059947;28;20485;-67
2024/03/16 08:16:46;;;;;;;10.80;9.70;;;8.90;99.90;;;;;;5059839;28;20471;-67
2024/03/16 08:19:15;;;;;;;10.20;9.30;;;9.00;1.00;;;;;;5060008;28;20461;-68
2024/03/16 08:21:42;;;;;;;10.83;9.73;;;9.10;1.00;;;;;;5060090;28;20453;-68
2024/03/16 08:24:09;;;;;;;9.30;8.30;;;9.00;99.90;;;;;;5059908;28;20861;-68
2024/03/16 08:26:37;;;;;;;9.30;8.40;;;8.80;1.00;;;;;;5059731;28;20834;-69
2024/03/16 08:29:05;;;;;;;8.33;7.60;;;8.80;1.00;;;;;;5059358;28;20489;-68
2024/03/16 08:31:33;;;;;;;8.90;8.03;;;8.60;1.00;;;;;;5059694;28;20546;-69
2024/03/16 08:34:00;;;;;;;12.10;8.30;;;8.50;1.00;;;;;;5059336;28;20461;-67
2024/03/16 08:36:28;;;;;;;10.50;9.40;;;8.50;1.00;;;;;;5059269;28;20785;-68
2024/03/16 08:38:56;;;;;;;12.23;10.03;;;8.40;1.00;;;;;;5059461;28;20552;-68
2024/03/16 08:41:24;;;;;;;11.03;9.93;;;8.40;1.00;;;;;;5059585;28;20457;-67
2024/03/16 08:43:51;;;;;;;13.13;9.83;;;8.60;54.20;;;;;;5059099;28;20515;-68
2024/03/16 08:46:18;;;;;;;11.53;10.43;;;8.60;23.70;;;;;;5059113;28;20499;-67
2024/03/16 08:48:46;;;;;;;12.60;11.27;;;8.60;1.00;;;;;;5059447;28;20457;-67
2024/03/16 08:51:14;;;;;;;12.73;11.37;;;8.70;1.00;;;;;;5059332;28;20468;-67
2024/03/16 08:53:42;;;;;;;12.67;11.37;;;8.90;1.00;;;;;;5058860;28;20461;-67
2024/03/16 08:56:09;;;;;;;13.43;12.03;;;9.20;1.00;;;;;;5059233;28;20510;-67
2024/03/16 08:58:35;;;;;;;12.30;11.10;;;9.60;1.00;;;;;;5058277;28;20457;-66
2024/03/16 09:01:03;;;;;;;13.80;10.63;;;9.90;99.90;;;;;;5058533;28;20510;-66
2024/03/16 09:03:30;;;;;;;10.97;9.97;;;10.10;99.90;;;;;;5058998;28;20460;-66
2024/03/16 09:05:57;;;;;;;11.33;10.23;;;9.80;1.00;;;;;;5059358;28;20457;-66
2024/03/16 09:08:24;;;;;;;11.03;9.93;;;9.50;1.00;;;;;;5058964;28;20472;-66
2024/03/16 09:10:51;;;;;;;12.30;10.00;;;9.30;1.00;;;;;;5059565;28;21011;-66
2024/03/16 09:13:19;;;;;;;11.77;9.63;;;9.20;1.00;;;;;;5059279;28;21011;-66
2024/03/16 09:15:46;;;;;;;11.53;10.13;;;9.00;1.00;;;;;;5059031;28;20737;-66
2024/03/16 09:18:13;;;;;;;9.40;8.07;;;8.70;1.00;;;;;;5058570;28;20461;-67
2024/03/16 09:20:43;;;;;;;8.17;6.70;;;8.40;99.90;;;;;;5058947;28;20493;-68
2024/03/16 09:23:14;;;;;;;7.33;6.20;;;8.30;99.90;;;;;;5059689;28;20871;-68
2024/03/16 09:25:44;;;;;;;6.13;4.70;;;8.40;1.00;;;;;;5062018;28;20543;-69
2024/03/16 09:28:18;;;;;;;4.80;3.80;;;8.40;99.90;;;;;;5046348;28;20803;-66
2024/03/16 09:30:47;;;;;;;7.50;4.10;;;8.50;99.90;;;;;;5063399;28;20551;-69
2024/03/16 09:33:14;;;;;;;6.37;4.10;;;8.30;99.90;;;;;;5062947;28;20489;-68
2024/03/16 09:35:43;;;;;;;5.30;3.40;;;8.10;1.00;;;;;;5062687;28;20444;-68
2024/03/16 09:38:10;;;;;;;4.83;3.10;;;8.00;99.90;;;;;;5062811;28;20570;-68
2024/03/16 09:40:39;;;;;;;6.83;2.73;;;7.90;99.90;;;;;;5061674;28;20560;-67
2024/03/16 09:43:09;;;;;;;3.37;2.53;;;7.90;99.90;;;;;;5061349;28;20472;-68
2024/03/16 09:45:36;;;;;;;4.10;2.70;;;7.90;99.90;;;;;;5062660;28;20548;-68
2024/03/16 09:48:04;;;;;;;4.03;3.10;;;8.10;1.00;;;;;;5061887;28;20457;-67
2024/03/16 09:50:32;;;;;;;4.30;2.80;;;8.20;1.00;;;;;;5062685;28;20536;-68
2024/03/16 09:52:59;;;;;;;5.30;3.17;;;8.10;99.90;;;;;;5062659;28;20937;-67
2024/03/16 09:55:27;;;;;;;3.57;2.73;;;8.10;99.90;;;;;;5062642;28;20533;-68
2024/03/16 09:57:54;;;;;;;4.40;3.07;;;8.30;1.00;;;;;;5060249;28;20996;-66
2024/03/16 10:00:22;;;;;;;3.67;3.27;;;8.40;75.80;;;;;;5061617;28;20452;-67
2024/03/16 10:02:50;;;;;;;4.97;3.47;;;8.30;1.00;;;;;;5061118;28;20469;-67
2024/03/16 10:05:18;;;;;;;6.33;3.57;;;8.40;1.00;;;;;;5060664;28;20457;-66
2024/03/16 10:07:46;;;;;;;6.07;4.90;;;8.30;1.00;;;;;;5060730;28;20473;-67
2024/03/16 10:10:17;;;;;;;6.73;4.13;;;8.40;1.00;;;;;;5060669;28;20483;-66
2024/03/16 10:12:44;;;;;;;9.00;5.17;;;8.50;1.00;;;;;;5059856;28;20489;-66
2024/03/16 10:15:16;;;;;;;6.57;5.03;;;8.40;1.00;;;;;;5058797;28;20462;-67
2024/03/16 10:17:44;;;;;;;6.10;5.50;;;8.50;1.00;;;;;;5060025;28;20460;-66
2024/03/16 10:20:16;;;;;;;6.07;4.97;;;8.70;1.00;;;;;;5060677;28;20499;-66
2024/03/16 10:22:47;;;;;;;7.10;5.80;;;8.80;1.00;;;;;;5061492;28;20835;-66
2024/03/16 10:25:15;;;;;;;6.73;4.93;;;9.00;1.00;;;;;;5060963;28;20722;-65
2024/03/16 10:27:43;;;;;;;5.23;4.40;;;8.80;99.90;;;;;;5061086;28;20572;-65
2024/03/16 10:30:14;;;;;;;5.10;3.83;;;8.80;99.90;;;;;;5061740;28;20458;-65
2024/03/16 10:32:46;;;;;;;5.30;3.60;;;8.70;99.90;;;;;;5062828;28;20482;-66
2024/03/16 10:35:14;;;;;;;4.27;3.47;;;8.60;99.90;;;;;;5062501;28;20506;-66
2024/03/16 10:37:42;;;;;;;6.10;4.13;;;8.30;1.00;;;;;;5060948;28;20957;-65
2024/03/16 10:40:17;;;;;;;8.23;5.90;;;8.00;1.00;;;;;;5061409;28;20518;-66
2024/03/16 10:42:48;;;;;;;5.93;5.10;;;7.90;99.90;;;;;;5062404;28;20789;-66
2024/03/16 10:45:16;;;;;;;6.73;4.03;;;7.80;1.00;;;;;;5061791;28;20456;-66
2024/03/16 10:47:44;;;;;;;7.23;4.50;;;7.80;60.60;;;;;;5061771;28;20793;-66
2024/03/16 10:50:12;;;;;;;5.03;4.53;;;8.00;70.50;;;;;;5061824;28;20488;-66
2024/03/16 10:52:40;;;;;;;7.07;3.47;;;8.00;30.50;;;;;;5061230;28;20496;-66
2024/03/16 10:55:09;;;;;;;5.20;3.27;;;8.10;1.00;;;;;;5061834;28;20910;-66
2024/03/16 10:57:37;;;;;;;8.60;3.60;;;8.20;1.00;;;;;;5061282;28;20461;-66
2024/03/16 11:00:16;;;;;;;7.93;3.10;;;8.00;99.90;;;;;;5061627;28;20453;-66
2024/03/16 11:02:52;;;;;;;6.43;2.93;;;8.10;1.00;;;;;;5062868;28;20551;-66
2024/03/16 11:05:32;;;;;;;4.57;3.10;;;8.20;99.90;;;;;;5061564;28;20760;-65
2024/03/16 11:08:00;;;;;;;5.10;2.60;;;8.30;99.90;;;;;;5060924;28;20463;-66
2024/03/16 11:10:42;;;;;;;5.13;3.00;;;8.50;99.90;;;;;;5061237;28;20556;-66
2024/03/16 11:13:15;;;;;;;5.93;3.20;;;8.60;99.90;;;;;;5060960;28;20516;-66
2024/03/16 11:15:43;;;;;;;3.90;2.67;;;8.70;82.20;;;;;;5059720;28;20457;-66
2024/03/16 11:18:52;;;;;;;6.40;2.87;;;8.70;1.00;;;;;;5059690;28;20468;-65
2024/03/16 11:21:22;;;;;;;5.43;2.87;;;8.70;1.00;;;;;;5078301;28;20500;-66
2024/03/16 11:23:52;;;;;;;3.67;2.80;;;8.80;96.80;;;;;;5060118;28;20453;-66
2024/03/16 11:26:37;;;;;;;4.30;2.23;;;8.80;1.00;;;;;;5060985;28;20902;-65
2024/03/16 11:29:04;;;;;;;5.13;2.70;;;8.70;1.00;;;;;;5061713;28;20495;-64
2024/03/16 11:31:36;;;;;;;5.00;2.90;;;8.50;1.00;;;;;;5060450;28;20522;-65
2024/03/16 11:34:03;;;;;;;5.30;2.47;;;8.40;1.00;;;;;;5061294;28;20542;-65
2024/03/16 11:36:32;;;;;;;5.47;3.00;;;8.20;1.00;;;;;;5060223;28;20479;-66
2024/03/16 11:38:59;;;;;;;6.60;2.50;;;8.20;70.40;;;;;;5060097;28;20462;-66
2024/03/16 11:41:26;;;;;;;4.57;2.90;;;8.30;99.90;;;;;;5060056;28;20461;-65
2024/03/16 11:43:53;;;;;;;3.70;2.70;;;8.20;99.90;;;;;;5060496;28;20460;-66
2024/03/16 11:46:20;;;;;;;4.07;2.87;;;8.10;62.60;;;;;;5057797;28;20558;-65
2024/03/16 11:48:46;;;;;;;4.23;2.43;;;8.10;99.90;;;;;;5057984;28;20820;-65
2024/03/16 11:51:15;;;;;;;3.83;2.60;;;8.20;99.90;;;;;;5057652;28;20462;-65
2024/03/16 11:53:41;;;;;;;5.70;3.00;;;8.40;99.90;;;;;;5058788;28;20774;-65
2024/03/16 11:56:10;;;;;;;6.17;3.60;;;8.70;99.90;;;;;;5058456;28;20906;-64
2024/03/16 11:58:37;;;;;;;4.67;2.53;;;8.70;1.00;;;;;;5058790;28;20463;-64
2024/03/16 12:01:05;;;;;;;5.13;3.10;;;8.70;1.00;;;;;;5058594;28;20465;-64
2024/03/16 12:03:32;;;;;;;6.00;2.93;;;9.10;1.00;;;;;;5058992;28;20457;-63
2024/03/16 12:05:59;;;;;;;4.53;2.30;;;9.20;1.00;;;;;;5059851;28;20463;-63
2024/03/16 12:08:25;;;;;;;5.47;2.70;;;9.40;1.00;;;;;;5058587;28;20734;-63
2024/03/16 12:10:53;;;;;;;4.37;2.70;;;9.50;1.00;;;;;;5058307;28;20898;-63
2024/03/16 12:13:20;;;;;;;4.10;2.47;;;9.50;1.00;;;;;;5058354;28;20955;-63
2024/03/16 12:15:47;;;;;;;3.87;2.23;;;9.60;1.00;;;;;;5058395;28;20462;-62
2024/03/16 12:18:14;;;;;;;4.07;3.07;;;9.40;1.00;;;;;;5058715;28;20921;-62
2024/03/16 12:20:42;;;;;;;5.00;2.93;;;9.20;1.00;;;;;;5058440;28;20461;-62
2024/03/16 12:23:08;;;;;;;3.20;2.20;;;9.30;1.00;;;;;;5059504;28;20456;-62
2024/03/16 12:25:36;;;;;;;4.13;2.40;;;9.20;1.00;;;;;;5059865;28;20464;-62
2024/03/16 12:28:05;;;;;;;5.03;2.60;;;9.20;1.00;;;;;;5059429;28;20521;-61
2024/03/16 12:30:34;;;;;;;4.00;2.80;;;9.20;1.00;;;;;;5060213;28;20536;-62
2024/03/16 12:33:00;;;;;;;3.50;2.40;;;9.10;1.00;;;;;;5059819;28;20489;-61
2024/03/16 12:35:32;;;;;;;4.83;2.97;;;9.00;1.00;;;;;;5059776;28;20511;-62
2024/03/16 12:37:58;;;;;;;4.30;2.97;;;9.00;1.00;;;;;;5060389;28;20461;-61
2024/03/16 12:40:26;;;;;;;5.27;3.87;;;9.00;1.00;;;;;;5059490;28;20522;-61
2024/03/16 12:42:52;;;;;;;5.80;3.97;;;9.00;1.00;;;;;;5059444;28;20453;-61
2024/03/16 12:45:20;;;;;;;5.27;4.20;;;9.00;1.00;;;;;;5059476;28;20462;-61
2024/03/16 12:47:46;;;;;;;5.50;4.40;;;8.70;1.00;;;;;;5059474;28;20823;-61
2024/03/16 12:50:13;;;;;;;4.40;3.20;;;8.70;1.00;;;;;;5058960;28;20457;-61
2024/03/16 12:52:39;;;;;;;8.00;4.53;;;9.00;1.00;;;;;;5059277;28;20961;-61
2024/03/16 12:55:09;;;;;;;5.30;3.20;;;9.00;1.00;;;;;;5059555;28;20457;-61
2024/03/16 12:57:35;;;;;;;8.87;3.40;;;9.20;1.00;;;;;;5059486;28;20496;-61
2024/03/16 13:00:04;;;;;;;5.97;2.93;;;9.30;1.00;;;;;;5058559;28;20465;-61